Time;durP1;ratioP1;P1;durP2;ratioP2;P2;SDS_P1;SDS_P2;PMS_P1;PMS_P2;Temp;Humidity;BMP_temperature;BMP_pressure;BME280_temperature;BME280_humidity;BME280_pressure;Samples;Min_cycle;Max_cycle;Signal;HPM_P1;HPM_P2
2022/01/08 00:04:26;;;;;;;17.17;7.53;;;3.30;99.90;;;;;;10249300;28;84030;-51
2022/01/08 00:09:27;;;;;;;18.60;6.78;;;3.20;99.90;;;;;;10249012;28;85970;-51
2022/01/08 00:14:29;;;;;;;14.20;6.57;;;3.10;99.90;;;;;;10249306;28;83316;-48
2022/01/08 00:19:29;;;;;;;11.02;6.00;;;3.00;99.90;;;;;;10247407;28;85435;-49
2022/01/08 00:24:30;;;;;;;12.02;6.18;;;3.00;99.90;;;;;;10247680;28;83723;-48
2022/01/08 00:29:31;;;;;;;13.52;6.60;;;2.80;99.90;;;;;;10247374;28;83710;-51
2022/01/08 00:34:31;;;;;;;12.85;5.53;;;2.70;99.90;;;;;;10249085;28;83377;-48
2022/01/08 00:39:33;;;;;;;13.40;6.40;;;2.80;99.90;;;;;;10246103;28;83803;-51
2022/01/08 00:44:34;;;;;;;13.57;5.95;;;2.80;99.90;;;;;;10248203;28;82900;-52
2022/01/08 00:49:35;;;;;;;13.43;6.60;;;2.80;99.90;;;;;;10247469;28;82870;-53
2022/01/08 00:54:36;;;;;;;9.85;5.63;;;2.80;99.90;;;;;;10243364;28;85601;-49
2022/01/08 00:59:37;;;;;;;11.10;5.80;;;2.80;99.90;;;;;;10250668;28;84125;-49
2022/01/08 01:04:38;;;;;;;16.38;6.22;;;2.70;99.90;;;;;;10284135;28;83807;-49
2022/01/08 01:09:38;;;;;;;12.80;5.72;;;2.60;99.90;;;;;;10284871;28;84148;-50
2022/01/08 01:14:39;;;;;;;11.18;5.45;;;2.60;99.90;;;;;;10287661;28;83784;-48
2022/01/08 01:19:40;;;;;;;16.65;6.22;;;2.50;99.90;;;;;;10285194;28;85990;-51
2022/01/08 01:24:41;;;;;;;11.70;6.85;;;2.50;99.90;;;;;;10288042;28;83255;-49
2022/01/08 01:50:44;;;;;;;10.70;5.63;;;2.20;99.90;;;;;;10293677;28;83829;-49
2022/01/08 01:55:45;;;;;;;9.05;4.82;;;2.30;99.90;;;;;;10292853;28;83574;-50
2022/01/08 02:00:49;;;;;;;13.15;5.63;;;2.20;99.90;;;;;;10292724;28;84159;-49
2022/01/08 02:05:51;;;;;;;9.98;4.75;;;2.20;99.90;;;;;;10291211;28;84075;-47
2022/01/08 02:10:51;;;;;;;10.10;5.95;;;2.20;99.90;;;;;;10292628;28;83674;-47
2022/01/08 02:15:54;;;;;;;10.80;5.22;;;2.20;99.90;;;;;;10290851;28;84720;-48
2022/01/08 02:20:57;;;;;;;11.50;5.78;;;2.20;99.90;;;;;;10292549;28;84040;-50
2022/01/08 02:26:15;;;;;;;9.52;4.85;;;2.20;99.90;;;;;;10292263;28;83718;-52
2022/01/08 02:31:23;;;;;;;13.70;5.43;;;2.20;99.90;;;;;;10293175;28;84298;-51
2022/01/08 02:36:24;;;;;;;10.82;4.90;;;2.10;99.90;;;;;;10291996;28;84165;-50
2022/01/08 02:41:26;;;;;;;9.00;5.05;;;2.10;99.90;;;;;;10292495;28;83758;-47
2022/01/08 02:46:28;;;;;;;11.55;5.32;;;2.10;99.90;;;;;;10273681;28;86127;-50
2022/01/08 02:51:31;;;;;;;6.63;3.95;;;2.10;99.90;;;;;;10291853;28;83557;-53
2022/01/08 02:56:31;;;;;;;12.95;5.25;;;2.10;99.90;;;;;;10291110;28;84108;-47
2022/01/08 03:01:33;;;;;;;10.73;5.30;;;2.10;99.90;;;;;;10291313;28;83671;-48
2022/01/08 03:06:33;;;;;;;13.73;6.03;;;2.10;99.90;;;;;;10289175;28;83958;-52
2022/01/08 03:11:34;;;;;;;9.23;5.43;;;2.00;99.90;;;;;;10305806;28;84355;-49
2022/01/08 03:16:35;;;;;;;10.15;4.95;;;2.00;99.90;;;;;;10289214;28;83928;-48
2022/01/08 03:21:40;;;;;;;10.02;4.35;;;2.00;99.90;;;;;;10290431;28;84462;-49
2022/01/08 03:26:41;;;;;;;11.40;5.22;;;1.90;99.90;;;;;;10289949;28;84125;-50
2022/01/08 03:31:42;;;;;;;11.50;5.60;;;1.90;99.90;;;;;;10290567;28;83594;-50
2022/01/08 03:36:42;;;;;;;13.25;7.03;;;1.90;99.90;;;;;;10287655;28;84206;-52
2022/01/08 03:41:44;;;;;;;10.80;5.85;;;1.80;99.90;;;;;;10288949;28;85316;-50
2022/01/08 03:46:44;;;;;;;17.40;5.95;;;1.90;99.90;;;;;;10288340;28;83739;-51
2022/01/08 03:51:45;;;;;;;10.25;5.88;;;1.80;99.90;;;;;;10289394;28;83533;-47
2022/01/08 03:56:46;;;;;;;11.98;6.32;;;1.80;99.90;;;;;;10289153;28;84153;-52
2022/01/08 04:01:47;;;;;;;11.50;5.75;;;1.80;99.90;;;;;;10289674;28;83252;-53
2022/01/08 04:06:48;;;;;;;14.93;6.63;;;1.80;99.90;;;;;;10289025;28;83219;-47
2022/01/08 04:11:49;;;;;;;13.82;6.35;;;1.80;99.90;;;;;;10278599;28;86267;-51
2022/01/08 04:16:52;;;;;;;12.45;6.38;;;1.80;99.90;;;;;;10247859;28;84001;-47
2022/01/08 04:21:59;;;;;;;9.68;6.30;;;1.90;99.90;;;;;;10246857;28;83703;-51
2022/01/08 04:26:59;;;;;;;12.40;6.32;;;1.90;99.90;;;;;;10246205;28;85285;-50
2022/01/08 04:32:00;;;;;;;12.45;5.82;;;1.90;99.90;;;;;;10247501;28;83846;-51
2022/01/08 04:37:01;;;;;;;12.68;6.47;;;1.80;99.90;;;;;;10246961;28;83236;-47
2022/01/08 04:42:01;;;;;;;14.38;7.55;;;1.80;99.90;;;;;;10247107;28;83994;-48
2022/01/08 04:47:02;;;;;;;10.75;5.95;;;1.70;99.90;;;;;;10246903;28;84132;-49
2022/01/08 04:52:04;;;;;;;10.90;6.50;;;1.80;99.90;;;;;;10246671;28;83944;-48
2022/01/08 04:57:04;;;;;;;14.65;6.88;;;1.80;99.90;;;;;;10246557;28;85314;-49
2022/01/08 05:02:06;;;;;;;16.67;7.47;;;1.80;99.90;;;;;;10246658;28;84267;-51
2022/01/08 05:07:06;;;;;;;13.23;5.10;;;1.80;99.90;;;;;;10243015;28;83338;-49
2022/01/08 05:12:08;;;;;;;11.77;6.95;;;1.70;99.90;;;;;;10242187;28;84309;-49
2022/01/08 05:17:08;;;;;;;12.93;6.18;;;1.70;99.90;;;;;;10245082;28;83807;-49
2022/01/08 05:22:17;;;;;;;16.65;5.82;;;1.70;99.90;;;;;;10261214;28;83870;-49
2022/01/08 05:27:18;;;;;;;10.25;5.80;;;1.70;99.90;;;;;;10246109;28;83706;-48
2022/01/08 05:32:19;;;;;;;10.13;6.28;;;1.60;99.90;;;;;;10245612;28;83841;-50
2022/01/08 05:37:20;;;;;;;12.35;5.65;;;1.60;99.90;;;;;;10273044;22;86351;-55
2022/01/08 05:42:20;;;;;;;15.05;5.72;;;1.60;99.90;;;;;;10301961;28;84275;-53
2022/01/08 05:47:22;;;;;;;11.77;6.45;;;1.60;99.90;;;;;;10280257;28;83581;-53
2022/01/08 05:52:22;;;;;;;10.77;5.80;;;1.60;99.90;;;;;;10291464;28;83753;-54
2022/01/08 05:57:23;;;;;;;11.18;6.38;;;1.50;99.90;;;;;;10284594;28;85236;-52
2022/01/08 06:02:24;;;;;;;16.10;6.35;;;1.50;99.90;;;;;;10284464;28;86390;-53
2022/01/08 06:07:24;;;;;;;13.75;5.78;;;1.60;99.90;;;;;;10285502;28;83402;-55
2022/01/08 06:12:25;;;;;;;12.93;6.57;;;1.60;99.90;;;;;;10283845;28;84185;-54
2022/01/08 06:17:26;;;;;;;10.57;5.25;;;1.70;99.90;;;;;;10281969;28;84178;-52
2022/01/08 06:22:26;;;;;;;10.80;6.90;;;1.70;99.90;;;;;;10276938;28;83378;-53
2022/01/08 06:27:27;;;;;;;12.57;5.97;;;1.70;99.90;;;;;;10285570;28;83468;-51
2022/01/08 06:32:28;;;;;;;11.25;6.00;;;1.80;99.90;;;;;;10286378;28;84120;-54
2022/01/08 06:37:28;;;;;;;19.88;5.93;;;1.80;99.90;;;;;;10290537;28;85392;-54
2022/01/08 06:42:29;;;;;;;12.32;6.00;;;1.70;99.90;;;;;;10291386;28;84180;-52
2022/01/08 06:47:30;;;;;;;11.10;7.03;;;1.60;99.90;;;;;;10292440;28;83254;-51
2022/01/08 06:52:32;;;;;;;13.75;6.32;;;1.60;99.90;;;;;;10274148;28;86270;-55
2022/01/08 06:57:33;;;;;;;14.88;5.95;;;1.50;99.90;;;;;;10291972;28;84059;-53
2022/01/08 07:02:34;;;;;;;16.13;6.32;;;1.50;99.90;;;;;;10292395;28;84153;-52
2022/01/08 07:07:34;;;;;;;10.80;5.78;;;1.40;99.90;;;;;;10291822;28;83194;-51
2022/01/08 07:12:35;;;;;;;10.45;5.03;;;1.40;99.90;;;;;;10290977;28;85467;-51
2022/01/08 07:17:36;;;;;;;17.95;6.45;;;1.50;99.90;;;;;;10292223;28;83377;-55
2022/01/08 07:22:36;;;;;;;12.70;5.70;;;1.40;99.90;;;;;;10291945;28;84263;-55
2022/01/08 07:27:38;;;;;;;11.68;5.65;;;1.30;99.90;;;;;;10289944;28;83885;-51
2022/01/08 07:32:48;;;;;;;12.68;6.13;;;1.20;99.90;;;;;;10297256;28;83491;-53
2022/01/08 07:37:51;;;;;;;10.25;5.03;;;1.30;99.90;;;;;;10277914;28;84910;-52
2022/01/08 07:42:52;;;;;;;9.13;6.05;;;1.20;99.90;;;;;;10288379;28;83393;-54
2022/01/08 07:47:52;;;;;;;13.60;6.82;;;1.30;99.90;;;;;;10285289;28;84218;-53
2022/01/08 07:52:53;;;;;;;8.15;5.18;;;1.20;99.90;;;;;;10285842;28;83318;-52
2022/01/08 07:57:54;;;;;;;10.65;5.70;;;1.30;99.90;;;;;;10285283;28;84146;-52
2022/01/08 08:02:54;;;;;;;14.23;6.47;;;1.20;99.90;;;;;;10285414;28;84216;-54
2022/01/08 08:07:55;;;;;;;12.27;5.15;;;1.30;99.90;;;;;;10268273;28;84963;-54
2022/01/08 08:12:56;;;;;;;15.60;6.80;;;1.40;99.90;;;;;;10285538;28;83270;-54
2022/01/08 08:17:57;;;;;;;11.55;6.32;;;1.50;99.90;;;;;;10284453;28;83384;-51
2022/01/08 08:22:57;;;;;;;15.43;8.48;;;1.60;99.90;;;;;;10278361;28;84233;-54
2022/01/08 08:27:58;;;;;;;17.27;8.00;;;1.60;99.90;;;;;;10284429;28;83724;-54
2022/01/08 08:33:00;;;;;;;13.20;7.20;;;1.60;99.90;;;;;;10278012;28;84190;-52
2022/01/08 08:38:01;;;;;;;13.40;7.25;;;1.70;99.90;;;;;;10272351;28;83592;-52
2022/01/08 08:43:01;;;;;;;16.70;8.25;;;1.60;99.90;;;;;;10291214;28;84225;-52
2022/01/08 08:48:02;;;;;;;20.02;8.15;;;1.70;99.90;;;;;;10309493;28;83395;-55
2022/01/08 08:53:03;;;;;;;18.15;8.35;;;1.70;99.90;;;;;;10285600;28;83630;-55
2022/01/08 08:58:04;;;;;;;18.10;9.00;;;1.80;99.90;;;;;;10281226;28;85513;-55
2022/01/08 09:03:04;;;;;;;14.93;7.63;;;1.90;99.90;;;;;;10280102;28;85605;-53
2022/01/08 09:08:05;;;;;;;16.58;7.97;;;2.10;99.90;;;;;;10278854;28;83427;-50
2022/01/08 09:13:06;;;;;;;22.45;8.85;;;2.10;99.90;;;;;;10282100;28;83735;-52
2022/01/08 09:18:07;;;;;;;15.45;8.45;;;2.30;99.90;;;;;;10278632;28;83239;-55
2022/01/08 09:23:07;;;;;;;17.15;7.28;;;2.40;99.90;;;;;;10283297;28;84278;-53
2022/01/08 09:28:08;;;;;;;13.95;7.78;;;2.30;99.90;;;;;;10280786;28;83403;-52
2022/01/08 09:33:09;;;;;;;16.65;7.90;;;2.40;99.90;;;;;;10283347;28;83826;-53
2022/01/08 09:38:09;;;;;;;18.85;8.82;;;2.50;99.90;;;;;;10280238;28;85306;-53
2022/01/08 09:43:10;;;;;;;16.75;9.00;;;2.60;99.90;;;;;;10282707;28;84015;-52
2022/01/08 09:48:11;;;;;;;20.35;8.75;;;2.70;99.90;;;;;;10281812;28;83775;-54
2022/01/08 09:53:12;;;;;;;22.90;9.77;;;2.60;99.90;;;;;;10281878;28;83693;-55
2022/01/08 09:58:12;;;;;;;27.45;11.45;;;2.50;99.90;;;;;;10279959;28;86192;-53
2022/01/08 10:03:26;;;;;;;29.58;10.43;;;2.50;99.90;;;;;;10272606;28;84130;-50
2022/01/08 10:08:30;;;;;;;27.42;12.23;;;2.50;99.90;;;;;;10279116;28;83804;-55
2022/01/08 10:13:36;;;;;;;25.73;11.40;;;2.40;99.90;;;;;;10283135;28;84783;-52
2022/01/08 10:18:40;;;;;;;34.30;12.82;;;2.50;99.90;;;;;;10286814;28;84439;-49
2022/01/08 10:23:47;;;;;;;24.95;10.95;;;2.50;99.90;;;;;;10289010;28;84737;-51
2022/01/08 10:28:56;;;;;;;32.83;10.82;;;2.40;99.90;;;;;;10285367;28;84847;-53
2022/01/08 10:34:00;;;;;;;21.60;11.40;;;2.50;99.90;;;;;;10285655;28;84295;-52
2022/01/08 10:39:05;;;;;;;33.38;11.02;;;2.40;99.90;;;;;;10281255;28;84037;-53
2022/01/08 10:44:11;;;;;;;26.80;10.38;;;2.50;99.90;;;;;;10287797;28;84764;-55
2022/01/08 10:49:16;;;;;;;25.90;10.77;;;2.40;99.90;;;;;;10288704;28;84081;-55
2022/01/08 10:54:16;;;;;;;30.52;12.13;;;2.40;99.90;;;;;;10283930;28;84212;-58
2022/01/08 10:59:23;;;;;;;30.48;11.02;;;2.40;99.90;;;;;;10289167;28;83472;-53
2022/01/08 11:04:46;;;;;;;25.88;10.98;;;2.40;99.90;;;;;;10284706;28;86167;-50
2022/01/08 11:09:48;;;;;;;27.73;11.10;;;2.50;99.90;;;;;;10299454;28;84178;-58
2022/01/08 11:20:17;;;;;;;25.50;9.63;;;2.50;99.90;;;;;;10324585;28;84029;-52
2022/01/08 11:25:19;;;;;;;23.70;9.20;;;2.60;99.90;;;;;;10328993;28;86445;-53
2022/01/08 11:30:37;;;;;;;23.13;9.95;;;2.80;99.90;;;;;;10301717;28;83894;-54
2022/01/08 11:35:38;;;;;;;18.08;7.63;;;2.90;99.90;;;;;;10291888;28;83665;-55
2022/01/08 11:40:42;;;;;;;19.23;8.48;;;3.00;99.90;;;;;;10277455;22;84542;-52
2022/01/08 11:45:50;;;;;;;21.40;9.02;;;3.00;99.90;;;;;;10256639;28;84049;-59
2022/01/08 11:50:57;;;;;;;21.23;8.93;;;3.10;99.90;;;;;;10254598;28;84386;-53
2022/01/08 11:56:05;;;;;;;15.55;7.25;;;3.10;99.90;;;;;;10249748;28;84186;-50
2022/01/08 12:01:12;;;;;;;17.60;7.70;;;3.20;99.90;;;;;;10239932;28;84100;-51
2022/01/08 12:06:18;;;;;;;18.20;6.82;;;3.30;99.90;;;;;;10243000;28;84605;-54
2022/01/08 12:11:19;;;;;;;15.40;7.68;;;3.40;99.90;;;;;;10245761;28;83668;-54
2022/01/08 12:16:34;;;;;;;16.75;6.47;;;3.50;99.90;;;;;;10244145;28;85157;-53
2022/01/08 12:21:36;;;;;;;17.58;6.32;;;3.70;99.90;;;;;;10275982;28;83632;-55
2022/01/08 12:26:37;;;;;;;11.10;6.03;;;3.80;99.90;;;;;;10280316;28;84214;-50
2022/01/08 12:31:42;;;;;;;12.30;5.05;;;3.80;99.90;;;;;;10245112;28;84520;-49
2022/01/08 12:37:12;;;;;;;16.00;6.00;;;3.90;99.90;;;;;;10252183;28;84011;-51
2022/01/08 12:42:27;;;;;;;11.90;5.43;;;4.00;99.90;;;;;;10274240;28;84120;-52
2022/01/08 12:47:41;;;;;;;13.90;5.75;;;4.20;99.90;;;;;;10262732;28;83456;-53
2022/01/08 12:53:07;;;;;;;15.68;5.70;;;4.30;99.90;;;;;;10261688;28;85154;-52
2022/01/08 12:58:14;;;;;;;13.43;5.28;;;4.40;99.90;;;;;;10246675;28;83992;-52
2022/01/08 13:03:27;;;;;;;16.02;6.18;;;4.40;99.90;;;;;;10239506;28;84242;-54
2022/01/08 13:08:32;;;;;;;12.02;4.63;;;4.30;99.90;;;;;;10256574;28;84167;-55
2022/01/08 13:13:40;;;;;;;9.75;4.18;;;4.40;99.90;;;;;;10246965;28;84050;-53
2022/01/08 13:18:50;;;;;;;12.23;4.65;;;4.40;99.90;;;;;;10236867;28;83442;-54
2022/01/08 13:23:52;;;;;;;8.38;4.20;;;4.50;99.90;;;;;;10250765;28;84189;-52
2022/01/08 13:28:54;;;;;;;10.65;5.25;;;4.60;99.90;;;;;;10271990;28;85238;-56
2022/01/08 13:33:55;;;;;;;10.00;4.65;;;4.70;99.90;;;;;;10247534;28;83515;-54
2022/01/08 13:38:56;;;;;;;14.25;4.63;;;4.80;99.90;;;;;;10214628;28;83249;-55
2022/01/08 13:43:58;;;;;;;8.38;3.67;;;4.90;99.90;;;;;;10276942;28;84153;-54
2022/01/08 13:49:01;;;;;;;8.98;2.88;;;5.00;99.90;;;;;;10257893;28;83488;-53
2022/01/08 13:54:05;;;;;;;7.28;3.15;;;5.10;99.90;;;;;;10255430;28;83702;-50
2022/01/08 13:59:12;;;;;;;6.38;2.63;;;5.00;99.90;;;;;;10258715;28;84273;-51
2022/01/08 14:04:14;;;;;;;7.13;3.00;;;5.00;99.90;;;;;;10250122;28;84154;-51
2022/01/08 14:09:18;;;;;;;5.47;2.47;;;5.00;99.90;;;;;;10255851;28;84206;-54
2022/01/08 14:14:20;;;;;;;5.50;2.13;;;4.90;99.90;;;;;;10251251;28;83390;-54
2022/01/08 14:19:21;;;;;;;4.70;1.88;;;5.00;99.90;;;;;;10249457;28;85159;-54
2022/01/08 14:24:24;;;;;;;7.90;2.33;;;5.10;99.90;;;;;;10236916;28;84264;-53
2022/01/08 14:29:25;;;;;;;5.13;2.58;;;4.90;1.00;;;;;;10244460;28;86160;-60
2022/01/08 14:34:26;;;;;;;5.30;2.03;;;4.80;1.00;;;;;;10246030;28;83273;-58
2022/01/08 14:39:30;;;;;;;3.60;1.83;;;4.60;1.00;;;;;;10243307;28;86217;-56
2022/01/08 14:44:32;;;;;;;5.75;2.05;;;4.60;1.00;;;;;;10245609;28;83606;-57
2022/01/08 14:49:33;;;;;;;4.95;1.65;;;4.60;1.00;;;;;;10223297;28;86228;-56
2022/01/08 14:54:34;;;;;;;5.20;1.67;;;4.60;1.00;;;;;;10252093;28;83441;-59
2022/01/08 14:59:35;;;;;;;4.57;1.48;;;4.60;1.00;;;;;;10246432;28;83194;-59
2022/01/08 15:04:37;;;;;;;2.85;1.52;;;4.50;1.00;;;;;;10283182;28;84569;-60
2022/01/08 15:09:38;;;;;;;4.65;1.80;;;4.50;1.00;;;;;;10264350;28;83357;-59
2022/01/08 15:14:38;;;;;;;3.53;1.25;;;4.50;1.00;;;;;;10254618;28;86382;-57
2022/01/08 15:19:39;;;;;;;2.45;1.55;;;4.40;1.00;;;;;;10242894;28;84087;-54
2022/01/08 15:24:40;;;;;;;3.72;1.20;;;4.40;1.00;;;;;;10245807;28;84120;-57
2022/01/08 15:29:40;;;;;;;5.45;1.15;;;4.30;1.00;;;;;;10242682;28;83356;-51
2022/01/08 15:34:41;;;;;;;3.25;0.93;;;4.30;1.00;;;;;;10242869;28;85934;-55
2022/01/08 15:39:41;;;;;;;2.75;1.33;;;4.40;1.00;;;;;;10242226;28;85251;-57
2022/01/08 15:44:44;;;;;;;4.18;1.33;;;4.30;1.00;;;;;;10243653;28;84161;-57
2022/01/08 15:49:45;;;;;;;1.35;0.90;;;4.20;1.00;;;;;;10243789;28;84117;-58
2022/01/08 15:54:46;;;;;;;2.25;1.67;;;4.20;1.00;;;;;;10243987;28;85325;-57
2022/01/08 15:59:47;;;;;;;4.43;1.52;;;4.10;1.00;;;;;;10242976;28;83979;-50
2022/01/08 16:04:49;;;;;;;2.60;1.58;;;4.00;1.00;;;;;;10240730;28;86094;-56
2022/01/08 16:09:49;;;;;;;2.22;1.08;;;4.00;8.90;;;;;;10243309;28;83226;-57
2022/01/08 16:14:50;;;;;;;3.28;1.08;;;3.80;99.90;;;;;;10241718;28;84055;-56
2022/01/08 16:19:50;;;;;;;1.77;1.08;;;3.60;99.90;;;;;;10242356;28;84091;-59
2022/01/08 16:24:53;;;;;;;2.58;1.02;;;3.50;99.90;;;;;;10240375;28;90266;-53
2022/01/08 16:29:54;;;;;;;4.22;1.30;;;3.30;99.90;;;;;;10242022;28;83809;-58
2022/01/08 16:34:55;;;;;;;2.22;1.17;;;3.20;99.90;;;;;;10240918;28;84292;-61
2022/01/08 16:39:57;;;;;;;1.92;1.17;;;3.10;99.90;;;;;;10240834;28;84084;-55
2022/01/08 16:44:58;;;;;;;4.82;1.70;;;3.00;99.90;;;;;;10240551;28;84193;-58
2022/01/08 16:49:58;;;;;;;3.55;1.15;;;2.90;99.90;;;;;;10243680;28;84040;-59
2022/01/08 16:54:59;;;;;;;2.00;1.20;;;3.00;99.90;;;;;;10242380;28;83272;-58
2022/01/08 17:00:00;;;;;;;2.63;1.40;;;3.00;99.90;;;;;;10240113;28;85112;-51
2022/01/08 17:05:00;;;;;;;3.97;1.60;;;3.10;99.90;;;;;;10241946;28;84552;-59
2022/01/08 17:10:02;;;;;;;3.42;1.58;;;3.00;99.90;;;;;;10201207;28;83709;-54
2022/01/08 17:15:04;;;;;;;4.78;1.17;;;3.20;99.90;;;;;;10230072;28;84147;-51
2022/01/08 17:20:05;;;;;;;3.20;0.98;;;3.20;99.90;;;;;;10235435;28;85906;-47
2022/01/08 17:25:07;;;;;;;3.17;1.42;;;3.10;99.90;;;;;;10233867;28;84545;-46
2022/01/08 17:30:09;;;;;;;2.13;1.23;;;3.10;99.90;;;;;;10233599;28;84348;-48
2022/01/08 17:35:11;;;;;;;2.67;1.05;;;3.10;99.90;;;;;;10238922;28;84205;-49
2022/01/08 17:40:13;;;;;;;2.10;1.30;;;3.10;99.90;;;;;;10235711;28;85202;-46
2022/01/08 17:45:14;;;;;;;2.50;1.33;;;3.20;99.90;;;;;;10238806;28;83685;-48
2022/01/08 17:50:15;;;;;;;5.47;1.50;;;3.30;99.90;;;;;;10219599;28;86166;-51
2022/01/08 17:55:15;;;;;;;1.13;0.90;;;3.40;99.90;;;;;;10241331;28;83482;-50
2022/01/08 18:00:18;;;;;;;1.15;0.70;;;3.40;99.90;;;;;;10244121;28;83844;-48
2022/01/08 18:05:19;;;;;;;1.25;0.85;;;3.50;99.90;;;;;;10239654;28;83740;-46
2022/01/08 18:10:20;;;;;;;1.55;1.08;;;3.60;99.90;;;;;;10236498;28;85266;-49
2022/01/08 18:15:20;;;;;;;0.65;0.60;;;3.80;99.90;;;;;;10237702;28;84129;-47
2022/01/08 18:20:24;;;;;;;1.17;0.70;;;3.90;99.90;;;;;;10236996;28;85882;-46
2022/01/08 18:25:25;;;;;;;0.82;0.57;;;3.90;99.90;;;;;;10244638;28;85209;-47
2022/01/08 18:30:27;;;;;;;2.42;0.60;;;4.00;99.90;;;;;;10242571;28;83991;-49
2022/01/08 18:35:28;;;;;;;1.08;0.63;;;4.10;99.90;;;;;;10242395;28;84494;-51
2022/01/08 18:40:29;;;;;;;0.40;0.40;;;4.20;99.90;;;;;;10260854;28;86129;-61
2022/01/08 18:45:35;;;;;;;0.90;0.68;;;4.20;99.90;;;;;;10247360;28;84501;-59
2022/01/08 18:50:36;;;;;;;1.35;0.60;;;4.30;99.90;;;;;;10243480;28;83256;-59
2022/01/08 18:55:37;;;;;;;5.80;0.70;;;4.40;99.90;;;;;;10279477;23;84113;-51
2022/01/08 19:00:38;;;;;;;0.93;0.70;;;4.40;99.90;;;;;;10276413;28;85139;-52
2022/01/08 19:05:39;;;;;;;3.88;0.88;;;4.40;97.00;;;;;;10272396;28;83413;-50
2022/01/08 19:10:39;;;;;;;1.30;0.85;;;4.50;95.80;;;;;;10302038;28;84010;-52
2022/01/08 19:15:40;;;;;;;2.45;1.02;;;4.50;90.90;;;;;;10271807;28;84488;-50
2022/01/08 19:20:43;;;;;;;2.47;0.70;;;4.60;90.40;;;;;;10286872;28;83775;-55
2022/01/08 19:25:44;;;;;;;1.13;0.80;;;4.60;58.70;;;;;;10288306;28;83975;-52
2022/01/08 19:30:44;;;;;;;3.35;0.80;;;4.60;66.70;;;;;;10288043;28;86109;-52
2022/01/08 19:35:45;;;;;;;2.53;1.08;;;4.70;55.10;;;;;;10303774;28;84169;-50
2022/01/08 19:40:46;;;;;;;1.90;0.98;;;4.70;51.60;;;;;;10302294;28;83751;-53
2022/01/08 19:45:46;;;;;;;0.98;0.75;;;4.70;52.40;;;;;;10298889;28;83607;-57
2022/01/08 19:50:47;;;;;;;1.58;0.70;;;4.80;51.60;;;;;;10297075;28;85526;-54
2022/01/08 19:55:48;;;;;;;1.58;0.93;;;4.90;43.20;;;;;;10309081;28;83365;-54
2022/01/08 20:00:48;;;;;;;1.20;0.90;;;4.90;32.00;;;;;;10285689;28;83377;-60
2022/01/08 20:05:52;;;;;;;1.38;0.73;;;4.90;27.40;;;;;;10287918;28;83384;-56
2022/01/08 20:10:52;;;;;;;0.98;0.73;;;5.00;21.50;;;;;;10294082;28;85263;-58
2022/01/08 20:15:53;;;;;;;1.30;0.82;;;5.00;14.40;;;;;;10305016;28;83352;-57
2022/01/08 20:20:54;;;;;;;0.93;0.68;;;5.00;22.40;;;;;;10272686;28;86374;-59
2022/01/08 20:25:54;;;;;;;1.05;0.70;;;5.00;24.20;;;;;;10286689;28;84133;-58
2022/01/08 20:30:55;;;;;;;0.68;0.60;;;5.10;18.80;;;;;;10276738;28;84874;-54
2022/01/08 20:35:56;;;;;;;1.20;0.60;;;5.00;17.10;;;;;;10288445;28;84292;-58
2022/01/08 20:40:57;;;;;;;1.38;0.73;;;5.10;15.00;;;;;;10328373;28;83191;-56
2022/01/08 20:45:58;;;;;;;1.00;0.73;;;5.20;9.20;;;;;;10309371;28;85173;-61
2022/01/08 20:51:00;;;;;;;1.98;1.02;;;5.10;10.30;;;;;;10325715;28;85368;-59
2022/01/08 20:56:01;;;;;;;1.10;0.60;;;5.20;15.90;;;;;;10325022;28;83337;-58
2022/01/08 21:01:02;;;;;;;0.60;0.40;;;5.20;21.30;;;;;;10326929;28;84184;-53
2022/01/08 21:06:03;;;;;;;3.67;0.80;;;5.20;27.10;;;;;;10325455;28;84959;-53
2022/01/08 21:11:04;;;;;;;0.73;0.65;;;5.20;39.90;;;;;;10306917;28;84069;-59
2022/01/08 21:16:05;;;;;;;0.50;0.40;;;5.20;76.70;;;;;;10284700;28;84147;-55
2022/01/08 21:21:06;;;;;;;1.05;0.70;;;5.10;91.70;;;;;;10286009;28;83331;-58
2022/01/08 21:26:07;;;;;;;0.70;0.40;;;5.20;94.40;;;;;;10284519;28;83298;-56
2022/01/08 21:31:08;;;;;;;0.88;0.50;;;5.20;89.20;;;;;;10284579;28;85327;-56
2022/01/08 21:36:10;;;;;;;2.17;1.08;;;5.20;87.50;;;;;;10286414;28;84377;-54
2022/01/08 21:41:11;;;;;;;0.60;0.52;;;5.20;74.70;;;;;;10287726;28;83229;-57
2022/01/08 21:46:12;;;;;;;0.93;0.43;;;5.20;55.20;;;;;;10285407;28;84181;-59
2022/01/08 21:51:12;;;;;;;0.43;0.43;;;5.30;37.50;;;;;;10285643;28;84264;-55
2022/01/08 21:56:13;;;;;;;0.57;0.35;;;5.30;33.50;;;;;;10284918;28;83413;-61
2022/01/08 22:01:14;;;;;;;0.93;0.40;;;5.40;27.70;;;;;;10277912;28;83957;-60
2022/01/08 22:06:14;;;;;;;0.90;0.70;;;5.40;20.90;;;;;;10293144;28;83392;-54
2022/01/08 22:11:15;;;;;;;0.40;0.32;;;5.50;28.00;;;;;;10288724;28;84109;-60
2022/01/08 22:16:16;;;;;;;0.20;0.20;;;5.50;28.60;;;;;;10300621;28;83358;-59
2022/01/08 22:21:17;;;;;;;0.88;0.50;;;5.40;91.10;;;;;;10287454;28;83550;-56
2022/01/08 22:26:18;;;;;;;0.35;0.30;;;5.40;99.90;;;;;;10290101;28;84041;-56
2022/01/08 22:31:18;;;;;;;0.30;0.17;;;5.30;99.90;;;;;;10290594;28;84349;-56
2022/01/08 22:36:19;;;;;;;0.63;0.40;;;5.30;99.90;;;;;;10306358;28;84146;-57
2022/01/08 22:41:22;;;;;;;0.70;0.38;;;5.30;99.90;;;;;;10292342;28;84106;-55
2022/01/08 22:46:23;;;;;;;0.40;0.30;;;5.20;99.90;;;;;;10277238;28;84287;-55
2022/01/08 22:51:25;;;;;;;0.47;0.38;;;5.10;99.90;;;;;;10292675;28;84242;-58
2022/01/08 22:56:26;;;;;;;0.45;0.30;;;5.00;99.90;;;;;;10299059;28;83686;-56
2022/01/08 23:01:28;;;;;;;0.98;0.47;;;5.10;99.90;;;;;;10294178;28;84940;-54
2022/01/08 23:06:35;;;;;;;1.27;0.30;;;5.10;99.90;;;;;;10294298;28;84787;-60
2022/01/08 23:11:36;;;;;;;1.05;0.50;;;5.00;99.90;;;;;;10292874;28;84654;-55
2022/01/08 23:16:37;;;;;;;0.45;0.20;;;5.00;99.90;;;;;;10292259;28;84095;-57
2022/01/08 23:21:40;;;;;;;0.40;0.28;;;4.90;99.90;;;;;;10290024;28;83246;-55
2022/01/08 23:26:41;;;;;;;0.43;0.28;;;4.90;99.90;;;;;;10306673;28;86048;-56
2022/01/08 23:31:41;;;;;;;0.38;0.13;;;4.90;99.90;;;;;;10292689;28;83968;-56
2022/01/08 23:36:46;;;;;;;0.10;0.10;;;4.80;99.90;;;;;;10290370;28;84871;-56
2022/01/08 23:41:47;;;;;;;0.80;0.30;;;4.90;99.90;;;;;;10289974;28;83937;-58
2022/01/08 23:46:48;;;;;;;0.20;0.20;;;4.90;99.90;;;;;;10289087;28;83260;-54
2022/01/08 23:51:48;;;;;;;0.13;0.10;;;4.90;99.90;;;;;;10289475;28;83493;-53
2022/01/08 23:56:50;;;;;;;1.25;0.20;;;4.90;99.90;;;;;;10287588;28;84157;-60
